Time;durP1;ratioP1;P1;durP2;ratioP2;P2;SDS_P1;SDS_P2;PMS_P1;PMS_P2;Temp;Humidity;BMP_temperature;BMP_pressure;BME280_temperature;BME280_humidity;BME280_pressure;Samples;Min_cycle;Max_cycle;Signal;HPM_P1;HPM_P2
2021/08/01 00:01:28;;;;;;;16.83;15.37;;;16.20;99.90;;;;;;5060959;28;20454;-70
2021/08/01 00:03:56;;;;;;;16.53;15.23;;;16.20;99.90;;;;;;5055594;28;20452;-70
2021/08/01 00:06:23;;;;;;;15.70;14.53;;;16.30;99.90;;;;;;5054247;28;20459;-70
2021/08/01 00:08:50;;;;;;;16.10;14.80;;;16.20;99.90;;;;;;5054188;28;20707;-71
2021/08/01 00:11:17;;;;;;;16.20;14.90;;;16.20;99.90;;;;;;5055541;28;20515;-71
2021/08/01 00:13:44;;;;;;;16.53;15.10;;;16.20;99.90;;;;;;5053541;28;20456;-71
2021/08/01 00:16:11;;;;;;;16.50;14.97;;;16.20;99.90;;;;;;5055326;28;20480;-71
2021/08/01 00:18:41;;;;;;;15.87;14.53;;;16.20;99.90;;;;;;5055711;28;20448;-70
2021/08/01 00:21:08;;;;;;;15.30;14.00;;;16.20;99.90;;;;;;5056647;28;20934;-71
2021/08/01 00:23:35;;;;;;;16.50;14.80;;;16.30;99.90;;;;;;5054034;28;20803;-71
2021/08/01 00:26:02;;;;;;;16.30;14.70;;;16.30;99.90;;;;;;5055758;28;20464;-70
2021/08/01 00:28:30;;;;;;;16.60;15.10;;;16.20;99.90;;;;;;5054083;28;20464;-69
2021/08/01 00:30:59;;;;;;;15.50;14.20;;;16.20;99.90;;;;;;5063278;28;20832;-70
2021/08/01 00:33:27;;;;;;;15.53;14.33;;;16.20;99.90;;;;;;5058403;28;20506;-70
2021/08/01 00:35:56;;;;;;;16.83;15.37;;;16.10;99.90;;;;;;5052194;28;20462;-72
2021/08/01 00:38:23;;;;;;;17.57;16.00;;;16.10;99.90;;;;;;5059047;28;20486;-71
2021/08/01 00:40:51;;;;;;;18.27;16.67;;;16.10;99.90;;;;;;5057524;28;20466;-71
2021/08/01 00:43:19;;;;;;;17.20;15.73;;;16.00;99.90;;;;;;5051570;28;20459;-70
2021/08/01 00:45:47;;;;;;;16.33;14.80;;;15.90;99.90;;;;;;5060744;28;20474;-71
2021/08/01 00:48:15;;;;;;;16.60;15.03;;;15.90;99.90;;;;;;5056472;28;20455;-71
2021/08/01 00:50:43;;;;;;;15.83;14.40;;;15.90;99.90;;;;;;5055011;28;20480;-71
2021/08/01 00:53:12;;;;;;;18.40;15.00;;;15.90;99.90;;;;;;5061262;28;20462;-71
2021/08/01 00:55:40;;;;;;;17.47;16.07;;;15.80;99.90;;;;;;5058994;28;20451;-71
2021/08/01 00:58:08;;;;;;;17.47;15.43;;;15.80;99.90;;;;;;5057629;28;20451;-70
2021/08/01 01:03:30;;;;;;;18.53;16.30;;;15.60;99.90;;;;;;5053035;28;20455;-71
2021/08/01 01:06:02;;;;;;;16.33;14.83;;;15.60;99.90;;;;;;5057844;28;20460;-71
2021/08/01 01:08:38;;;;;;;16.90;15.40;;;15.60;99.90;;;;;;5052808;28;20478;-70
2021/08/01 01:11:07;;;;;;;17.53;15.90;;;15.60;99.90;;;;;;5056234;28;20475;-70
2021/08/01 01:13:42;;;;;;;16.93;15.67;;;15.70;99.90;;;;;;5064398;28;20459;-71
2021/08/01 01:16:12;;;;;;;16.63;15.27;;;15.70;99.90;;;;;;5051814;28;20483;-71
2021/08/01 01:18:46;;;;;;;17.23;15.70;;;15.80;99.90;;;;;;5056312;28;20559;-71
2021/08/01 01:21:28;;;;;;;16.60;15.40;;;15.90;99.90;;;;;;5055268;28;20741;-71
2021/08/01 01:24:02;;;;;;;17.57;16.27;;;15.90;99.90;;;;;;5052961;28;20456;-71
2021/08/01 01:26:35;;;;;;;17.83;16.27;;;16.00;99.90;;;;;;5058690;28;20455;-71
2021/08/01 01:29:15;;;;;;;16.23;15.13;;;16.00;99.90;;;;;;5050025;28;20578;-71
2021/08/01 01:31:53;;;;;;;16.87;15.57;;;16.00;99.90;;;;;;5051724;28;20490;-70
2021/08/01 01:34:24;;;;;;;15.77;14.57;;;16.10;99.90;;;;;;5058013;28;20535;-71
2021/08/01 01:36:54;;;;;;;15.80;14.50;;;16.10;99.90;;;;;;5057916;28;20452;-71
2021/08/01 01:39:22;;;;;;;16.57;15.27;;;16.10;99.90;;;;;;5059103;28;20783;-71
2021/08/01 01:41:51;;;;;;;17.17;15.67;;;16.00;99.90;;;;;;5051713;28;20460;-71
2021/08/01 01:44:19;;;;;;;17.60;16.00;;;15.90;99.90;;;;;;5054089;28;20474;-72
2021/08/01 01:46:48;;;;;;;15.73;14.60;;;15.90;99.90;;;;;;5062253;28;20546;-71
2021/08/01 01:49:16;;;;;;;17.40;15.53;;;16.00;99.90;;;;;;5060229;28;20844;-71
2021/08/01 01:51:44;;;;;;;16.17;14.93;;;16.00;99.90;;;;;;5055546;28;20522;-71
2021/08/01 01:54:15;;;;;;;17.20;15.70;;;15.90;99.90;;;;;;5055299;28;20964;-71
2021/08/01 01:56:43;;;;;;;16.53;15.30;;;15.90;99.90;;;;;;5057829;28;20487;-71
2021/08/01 01:59:12;;;;;;;16.50;15.23;;;15.90;99.90;;;;;;5056861;28;20479;-71
2021/08/01 02:01:39;;;;;;;16.37;15.03;;;16.00;99.90;;;;;;5056155;28;20452;-71
2021/08/01 02:04:07;;;;;;;16.37;14.90;;;16.00;99.90;;;;;;5055572;28;20822;-71
2021/08/01 02:06:34;;;;;;;16.80;15.03;;;16.00;99.90;;;;;;5055082;28;20486;-71
2021/08/01 02:09:08;;;;;;;16.33;14.90;;;16.00;99.90;;;;;;5057364;28;20475;-71
2021/08/01 02:11:45;;;;;;;15.53;14.43;;;16.00;99.90;;;;;;5060349;28;20487;-71
2021/08/01 02:14:16;;;;;;;15.93;14.40;;;15.90;99.90;;;;;;5057591;28;20459;-70
2021/08/01 02:16:48;;;;;;;15.27;14.27;;;15.90;99.90;;;;;;5056115;28;20541;-71
2021/08/01 02:19:17;;;;;;;15.17;14.00;;;15.90;99.90;;;;;;5057162;28;20806;-71
2021/08/01 02:21:44;;;;;;;15.60;14.40;;;15.90;99.90;;;;;;5051343;28;20464;-71
2021/08/01 02:24:13;;;;;;;14.40;13.23;;;15.80;99.90;;;;;;5059938;28;20459;-71
2021/08/01 02:26:43;;;;;;;14.40;13.40;;;15.80;99.90;;;;;;5062581;28;20550;-72
2021/08/01 02:29:12;;;;;;;16.17;14.60;;;15.70;99.90;;;;;;5060975;28;20451;-71
2021/08/01 02:31:40;;;;;;;14.17;13.27;;;15.70;99.90;;;;;;5051957;28;20483;-71
2021/08/01 02:34:08;;;;;;;14.67;13.67;;;15.60;99.90;;;;;;5053876;28;20456;-72
2021/08/01 02:36:37;;;;;;;16.07;14.70;;;15.50;99.90;;;;;;5057861;28;20463;-71
2021/08/01 02:39:04;;;;;;;15.57;14.13;;;15.40;99.90;;;;;;5052821;28;20981;-71
2021/08/01 02:41:35;;;;;;;15.23;14.07;;;15.40;99.90;;;;;;5059789;28;20465;-71
2021/08/01 02:44:09;;;;;;;15.93;14.83;;;15.30;99.90;;;;;;5057716;28;20455;-71
2021/08/01 02:46:39;;;;;;;15.47;14.30;;;15.20;99.90;;;;;;5054294;28;20470;-71
2021/08/01 02:49:11;;;;;;;16.27;14.93;;;15.20;99.90;;;;;;5054600;28;20451;-71
2021/08/01 02:51:38;;;;;;;15.90;14.60;;;15.20;99.90;;;;;;5054603;28;20485;-71
2021/08/01 02:54:06;;;;;;;17.53;16.00;;;15.10;99.90;;;;;;5056530;28;20917;-71
2021/08/01 02:56:35;;;;;;;21.10;15.70;;;15.00;99.90;;;;;;5058117;28;20519;-71
2021/08/01 02:59:05;;;;;;;17.10;15.70;;;15.00;99.90;;;;;;5052793;28;20455;-71
2021/08/01 03:01:33;;;;;;;16.00;14.60;;;15.10;99.90;;;;;;5058708;28;20458;-71
2021/08/01 03:04:00;;;;;;;16.87;15.47;;;15.00;99.90;;;;;;5053676;28;20460;-71
2021/08/01 03:06:32;;;;;;;16.97;15.60;;;15.00;99.90;;;;;;5058679;28;20462;-72
2021/08/01 03:09:03;;;;;;;17.33;15.83;;;14.90;99.90;;;;;;5050204;28;20467;-71
2021/08/01 03:11:34;;;;;;;17.00;15.50;;;14.80;99.90;;;;;;5055323;28;20479;-71
2021/08/01 03:14:03;;;;;;;17.07;15.67;;;14.80;99.90;;;;;;5049031;28;20456;-71
2021/08/01 03:16:30;;;;;;;17.53;15.50;;;14.70;99.90;;;;;;5060988;28;20824;-71
2021/08/01 03:18:57;;;;;;;17.30;15.77;;;14.70;99.90;;;;;;5055256;28;20460;-71
2021/08/01 03:21:24;;;;;;;17.87;16.40;;;14.60;99.90;;;;;;5055798;28;20462;-71
2021/08/01 03:23:51;;;;;;;18.00;16.30;;;14.50;99.90;;;;;;5051618;28;20772;-71
2021/08/01 03:26:19;;;;;;;16.57;15.27;;;14.50;99.90;;;;;;5056144;28;20455;-71
2021/08/01 03:28:46;;;;;;;18.43;16.93;;;14.40;99.90;;;;;;5052955;28;20460;-72
2021/08/01 03:31:14;;;;;;;19.60;17.80;;;14.40;99.90;;;;;;5055955;28;20589;-71
2021/08/01 03:33:41;;;;;;;21.23;19.00;;;14.40;99.90;;;;;;5056190;28;20455;-71
2021/08/01 03:36:08;;;;;;;22.73;19.60;;;14.40;99.90;;;;;;5050623;28;20463;-71
2021/08/01 03:38:36;;;;;;;27.20;18.93;;;14.30;99.90;;;;;;5064034;28;20470;-72
2021/08/01 03:41:02;;;;;;;22.20;19.93;;;14.30;99.90;;;;;;5062811;28;20473;-72
2021/08/01 03:43:30;;;;;;;28.93;22.03;;;14.40;99.90;;;;;;5060077;28;20455;-70
2021/08/01 03:45:56;;;;;;;26.87;23.97;;;14.40;99.90;;;;;;5056201;28;20537;-71
2021/08/01 03:48:26;;;;;;;27.67;22.40;;;14.40;99.90;;;;;;5055217;28;20455;-71
2021/08/01 03:50:54;;;;;;;31.20;25.20;;;14.40;99.90;;;;;;5056368;28;20463;-71
2021/08/01 03:53:22;;;;;;;29.90;25.77;;;14.30;99.90;;;;;;5057665;28;20857;-72
2021/08/01 03:55:48;;;;;;;29.87;24.83;;;14.30;99.90;;;;;;5054900;28;20467;-71
2021/08/01 03:58:15;;;;;;;35.43;27.03;;;14.30;99.90;;;;;;5058402;28;20466;-71
2021/08/01 04:00:47;;;;;;;30.57;26.90;;;14.20;99.90;;;;;;5056205;28;20855;-70
2021/08/01 04:03:15;;;;;;;36.30;26.80;;;14.20;99.90;;;;;;5054712;28;20462;-70
2021/08/01 04:05:43;;;;;;;32.40;25.90;;;14.30;99.90;;;;;;5063727;28;20566;-71
2021/08/01 04:08:11;;;;;;;32.20;25.83;;;14.20;99.90;;;;;;5057615;28;20816;-71
2021/08/01 04:10:39;;;;;;;33.80;27.13;;;14.20;99.90;;;;;;5057908;28;20455;-70
2021/08/01 04:13:07;;;;;;;30.97;26.50;;;14.20;99.90;;;;;;5059193;28;20984;-71
2021/08/01 04:15:34;;;;;;;31.03;25.83;;;14.20;99.90;;;;;;5058801;28;20554;-71
2021/08/01 04:18:02;;;;;;;30.63;25.67;;;14.20;99.90;;;;;;5056618;28;20476;-71
2021/08/01 04:20:29;;;;;;;36.63;23.93;;;14.20;99.90;;;;;;5063917;28;20443;-70
2021/08/01 04:22:58;;;;;;;27.50;24.53;;;14.20;99.90;;;;;;5059105;28;20467;-71
2021/08/01 04:25:25;;;;;;;29.47;24.37;;;14.10;99.90;;;;;;5060413;28;20462;-70
2021/08/01 04:27:53;;;;;;;27.67;24.17;;;14.10;99.90;;;;;;5050786;28;20463;-71
2021/08/01 04:30:20;;;;;;;27.37;24.00;;;14.10;99.90;;;;;;5055396;28;20957;-71
2021/08/01 04:32:47;;;;;;;26.87;24.00;;;14.00;99.90;;;;;;5049547;28;20476;-70
2021/08/01 04:35:13;;;;;;;25.53;22.80;;;14.00;99.90;;;;;;5052614;28;20460;-70
2021/08/01 04:37:42;;;;;;;25.47;22.80;;;14.10;99.90;;;;;;5057656;28;20455;-72
2021/08/01 04:40:12;;;;;;;27.33;22.63;;;14.10;99.90;;;;;;5058640;28;20463;-70
2021/08/01 04:42:39;;;;;;;26.80;20.80;;;14.00;99.90;;;;;;5054891;28;20460;-69
2021/08/01 04:45:07;;;;;;;22.47;20.00;;;14.00;99.90;;;;;;5057327;28;20475;-71
2021/08/01 04:47:34;;;;;;;27.00;20.30;;;14.00;99.90;;;;;;5050727;28;20486;-70
2021/08/01 04:50:02;;;;;;;26.57;20.27;;;13.90;99.90;;;;;;5053047;28;20459;-70
2021/08/01 04:52:28;;;;;;;24.43;20.40;;;13.90;99.90;;;;;;5059081;28;20553;-71
2021/08/01 04:54:55;;;;;;;21.97;19.80;;;13.90;99.90;;;;;;5057953;28;20554;-70
2021/08/01 04:57:24;;;;;;;21.57;19.50;;;13.90;99.90;;;;;;5054378;28;20455;-71
2021/08/01 04:59:51;;;;;;;20.03;17.93;;;13.90;99.90;;;;;;5058552;28;21196;-71
2021/08/01 05:02:17;;;;;;;19.63;17.67;;;13.90;99.90;;;;;;5055803;28;20985;-70
2021/08/01 05:04:44;;;;;;;21.17;17.60;;;14.00;99.90;;;;;;5055604;28;20460;-70
2021/08/01 05:07:11;;;;;;;20.93;17.40;;;13.90;99.90;;;;;;5059772;28;20466;-72
2021/08/01 05:09:39;;;;;;;21.27;17.03;;;13.90;99.90;;;;;;5062176;28;20456;-70
2021/08/01 05:12:08;;;;;;;19.13;17.13;;;13.90;99.90;;;;;;5055267;28;20493;-71
2021/08/01 05:14:36;;;;;;;21.83;18.17;;;13.80;99.90;;;;;;5054547;28;20463;-72
2021/08/01 05:17:03;;;;;;;19.30;17.30;;;13.90;99.90;;;;;;5055860;28;20525;-72
2021/08/01 05:19:30;;;;;;;19.40;17.30;;;13.90;99.90;;;;;;5056532;28;20448;-71
2021/08/01 05:21:57;;;;;;;19.73;17.67;;;13.90;99.90;;;;;;5057402;28;20471;-71
2021/08/01 05:24:24;;;;;;;20.33;16.73;;;14.00;99.90;;;;;;5055670;28;20758;-72
2021/08/01 05:26:51;;;;;;;20.27;17.10;;;14.00;99.90;;;;;;5059603;28;20470;-72
2021/08/01 05:29:18;;;;;;;19.60;16.90;;;14.10;99.90;;;;;;5058019;28;20461;-72
2021/08/01 05:31:47;;;;;;;20.23;17.83;;;14.20;99.90;;;;;;5056149;28;20460;-71
2021/08/01 05:34:14;;;;;;;22.67;16.70;;;14.20;99.90;;;;;;5058968;28;21005;-71
2021/08/01 05:36:41;;;;;;;18.20;16.20;;;14.30;99.90;;;;;;5056701;28;20521;-72
2021/08/01 05:39:08;;;;;;;22.67;16.87;;;14.40;99.90;;;;;;5057737;28;20946;-72
2021/08/01 05:41:35;;;;;;;24.70;16.27;;;14.40;99.90;;;;;;5059236;28;20977;-71
2021/08/01 05:44:02;;;;;;;19.47;17.27;;;14.50;99.90;;;;;;5051555;28;20880;-71
2021/08/01 05:46:31;;;;;;;24.00;17.23;;;14.50;99.90;;;;;;5051982;28;20487;-72
2021/08/01 05:49:00;;;;;;;20.80;16.90;;;14.50;99.90;;;;;;5056622;28;20466;-73
2021/08/01 05:51:28;;;;;;;23.63;16.23;;;14.60;99.90;;;;;;5054748;28;20456;-72
2021/08/01 05:53:55;;;;;;;25.47;18.20;;;14.60;99.90;;;;;;5056566;28;21000;-72
2021/08/01 05:56:21;;;;;;;18.60;16.70;;;14.70;99.90;;;;;;5056050;28;20459;-71
2021/08/01 05:58:50;;;;;;;18.17;16.40;;;14.80;99.90;;;;;;5051526;28;20460;-72
2021/08/01 06:01:18;;;;;;;28.40;18.50;;;14.90;99.90;;;;;;5052885;28;20471;-71
2021/08/01 06:03:47;;;;;;;22.73;16.60;;;15.00;99.90;;;;;;5054410;28;21465;-72
2021/08/01 06:06:17;;;;;;;21.67;17.30;;;15.00;99.90;;;;;;5058618;28;20455;-72
2021/08/01 06:08:46;;;;;;;34.27;17.83;;;15.20;99.90;;;;;;5051999;28;20464;-72
2021/08/01 06:11:14;;;;;;;24.40;17.83;;;15.20;99.90;;;;;;5053783;28;20470;-71
2021/08/01 06:13:43;;;;;;;28.00;16.93;;;15.30;99.90;;;;;;5050216;28;20497;-71
2021/08/01 06:16:11;;;;;;;24.53;19.20;;;15.20;99.90;;;;;;5051809;28;20484;-71
2021/08/01 06:18:39;;;;;;;25.30;18.10;;;15.30;99.90;;;;;;5054909;28;20475;-72
2021/08/01 06:21:08;;;;;;;21.37;19.07;;;15.30;99.90;;;;;;5054374;28;20479;-72
2021/08/01 06:23:38;;;;;;;25.50;18.93;;;15.40;99.90;;;;;;5060364;28;20462;-72
2021/08/01 06:26:06;;;;;;;21.90;19.40;;;15.40;99.90;;;;;;5060846;28;20521;-72
2021/08/01 06:28:34;;;;;;;23.53;18.60;;;15.40;99.90;;;;;;5055054;28;20452;-72
2021/08/01 06:31:02;;;;;;;25.63;19.30;;;15.60;99.90;;;;;;5052572;28;20540;-72
2021/08/01 06:33:30;;;;;;;47.00;18.83;;;15.60;99.90;;;;;;5051834;28;20968;-72
2021/08/01 06:35:58;;;;;;;21.57;18.47;;;15.60;99.90;;;;;;5059980;28;20989;-71
2021/08/01 06:38:25;;;;;;;20.67;18.00;;;15.80;99.90;;;;;;5053925;28;20474;-71
2021/08/01 06:40:53;;;;;;;18.93;17.20;;;16.00;99.90;;;;;;5059389;28;20508;-71
2021/08/01 06:43:20;;;;;;;18.87;17.03;;;16.10;99.90;;;;;;5058977;28;20462;-70
2021/08/01 06:45:47;;;;;;;19.30;17.50;;;16.30;99.90;;;;;;5055485;28;20800;-71
2021/08/01 06:48:14;;;;;;;19.63;18.07;;;16.50;99.90;;;;;;5056359;28;20989;-71
2021/08/01 06:50:41;;;;;;;20.57;17.17;;;16.60;99.90;;;;;;5057764;28;20586;-71
2021/08/01 06:53:08;;;;;;;19.77;18.07;;;16.90;99.90;;;;;;5051081;28;20491;-71
2021/08/01 06:55:34;;;;;;;22.30;18.60;;;16.90;99.90;;;;;;5056843;28;20499;-70
2021/08/01 06:58:02;;;;;;;20.63;18.33;;;17.00;99.90;;;;;;5049973;28;20467;-70
2021/08/01 07:00:29;;;;;;;19.27;17.57;;;17.40;99.90;;;;;;5054532;28;20459;-71
2021/08/01 07:02:57;;;;;;;19.37;17.97;;;17.50;99.90;;;;;;5057353;28;20950;-70
2021/08/01 07:05:25;;;;;;;19.77;17.97;;;17.70;99.90;;;;;;5053458;28;20466;-70
2021/08/01 07:07:53;;;;;;;21.83;17.97;;;17.70;99.90;;;;;;5055536;28;20455;-71
2021/08/01 07:10:20;;;;;;;20.13;18.17;;;17.60;99.90;;;;;;5056194;28;20455;-71
2021/08/01 07:12:48;;;;;;;21.07;19.07;;;17.50;99.90;;;;;;5058672;28;20477;-70
2021/08/01 07:15:18;;;;;;;20.17;18.07;;;17.20;99.90;;;;;;5059995;28;20468;-70
2021/08/01 07:17:47;;;;;;;20.13;18.50;;;17.20;99.90;;;;;;5059077;28;20509;-72
2021/08/01 07:20:15;;;;;;;18.40;16.93;;;17.10;99.90;;;;;;5061608;28;20826;-71
2021/08/01 07:22:43;;;;;;;20.20;18.60;;;17.40;99.90;;;;;;5060460;28;20455;-71
2021/08/01 07:25:10;;;;;;;20.83;19.20;;;17.30;99.90;;;;;;5062516;28;20798;-71
2021/08/01 07:27:38;;;;;;;20.87;18.87;;;17.40;99.90;;;;;;5060806;28;20463;-71
2021/08/01 07:30:06;;;;;;;18.83;17.53;;;17.50;99.90;;;;;;5058191;28;20470;-71
2021/08/01 07:32:34;;;;;;;21.97;18.27;;;17.70;99.90;;;;;;5056170;28;20464;-71
2021/08/01 07:35:02;;;;;;;20.23;18.40;;;17.60;99.90;;;;;;5057388;28;21066;-71
2021/08/01 07:37:31;;;;;;;19.90;17.90;;;17.60;99.90;;;;;;5057748;28;20458;-71
2021/08/01 07:39:58;;;;;;;19.80;18.30;;;17.50;99.90;;;;;;5059315;28;20457;-71
2021/08/01 07:42:25;;;;;;;19.57;17.67;;;17.50;99.90;;;;;;5056215;28;20806;-70
2021/08/01 07:44:53;;;;;;;19.70;17.97;;;17.50;99.90;;;;;;5058910;28;20817;-71
2021/08/01 07:47:21;;;;;;;20.23;18.47;;;17.40;99.90;;;;;;5059774;28;20803;-71
2021/08/01 07:49:51;;;;;;;19.00;17.30;;;17.70;99.90;;;;;;5055658;28;20474;-71
2021/08/01 07:52:19;;;;;;;19.70;17.60;;;17.90;99.90;;;;;;5052945;28;20458;-71
2021/08/01 07:54:51;;;;;;;21.10;19.37;;;18.10;99.90;;;;;;5058826;28;20483;-71
2021/08/01 07:57:25;;;;;;;19.57;18.17;;;17.80;99.90;;;;;;5052190;28;20808;-72
2021/08/01 07:59:52;;;;;;;19.97;18.10;;;17.80;99.90;;;;;;5059200;28;20454;-71
2021/08/01 08:02:18;;;;;;;19.70;17.73;;;17.60;99.90;;;;;;5057216;28;20459;-72
2021/08/01 08:04:47;;;;;;;20.10;17.00;;;17.80;99.90;;;;;;5056564;28;20977;-72
2021/08/01 08:07:15;;;;;;;20.20;18.57;;;17.40;99.90;;;;;;5061065;28;20458;-72
2021/08/01 08:09:42;;;;;;;22.33;18.80;;;17.50;99.90;;;;;;5050210;28;20459;-72
2021/08/01 08:12:10;;;;;;;19.43;17.83;;;17.50;99.90;;;;;;5051691;28;20451;-72
2021/08/01 08:14:37;;;;;;;19.80;18.00;;;17.50;99.90;;;;;;5061356;28;20487;-71
2021/08/01 08:17:04;;;;;;;20.30;18.20;;;17.60;99.90;;;;;;5056965;28;20483;-70
2021/08/01 08:19:31;;;;;;;19.50;17.60;;;17.90;99.90;;;;;;5051178;28;20460;-71
2021/08/01 08:21:59;;;;;;;18.10;16.40;;;17.90;99.90;;;;;;5060972;28;20795;-72
2021/08/01 08:24:27;;;;;;;17.67;16.13;;;18.10;99.90;;;;;;5049964;28;20455;-71
2021/08/01 08:26:55;;;;;;;17.07;15.87;;;18.20;99.90;;;;;;5061365;28;20467;-71
2021/08/01 08:29:23;;;;;;;16.33;15.20;;;18.20;99.90;;;;;;5054298;28;20479;-73
2021/08/01 08:31:51;;;;;;;16.60;15.20;;;18.40;99.90;;;;;;5055325;28;20508;-71
2021/08/01 08:34:20;;;;;;;16.83;15.30;;;18.50;99.90;;;;;;5054290;28;20818;-71
2021/08/01 08:36:49;;;;;;;16.80;15.50;;;18.70;99.90;;;;;;5055973;28;20480;-71
2021/08/01 08:39:17;;;;;;;16.90;15.40;;;18.50;99.90;;;;;;5059625;28;20463;-71
2021/08/01 08:41:46;;;;;;;17.97;16.53;;;18.70;99.90;;;;;;5055000;28;20459;-70
2021/08/01 08:44:13;;;;;;;17.00;15.77;;;18.80;99.90;;;;;;5059510;28;20560;-72
2021/08/01 08:46:40;;;;;;;22.50;15.80;;;18.70;99.90;;;;;;5052293;28;20468;-71
2021/08/01 08:49:08;;;;;;;16.50;15.10;;;19.00;99.90;;;;;;5059290;28;20478;-72
2021/08/01 08:51:38;;;;;;;17.20;15.80;;;19.10;99.90;;;;;;5054641;28;20455;-72
2021/08/01 08:54:07;;;;;;;16.63;15.30;;;19.10;99.90;;;;;;5054656;28;20490;-71
2021/08/01 08:56:35;;;;;;;17.17;15.87;;;19.20;99.90;;;;;;5055184;28;20772;-71
2021/08/01 08:59:06;;;;;;;17.07;15.57;;;19.20;99.90;;;;;;5056601;28;20611;-71
2021/08/01 09:01:33;;;;;;;17.17;15.97;;;19.20;99.90;;;;;;5058599;28;20470;-72
2021/08/01 09:03:59;;;;;;;19.10;17.60;;;19.10;99.90;;;;;;5055055;28;20845;-71
2021/08/01 09:06:29;;;;;;;17.70;16.50;;;19.30;99.90;;;;;;5060373;28;20820;-72
2021/08/01 09:08:56;;;;;;;19.53;17.23;;;19.10;99.90;;;;;;5054205;28;20467;-71
2021/08/01 09:11:23;;;;;;;18.50;17.20;;;19.10;99.90;;;;;;5057221;28;20470;-73
2021/08/01 09:13:52;;;;;;;19.07;17.37;;;19.10;99.90;;;;;;5053666;28;20475;-72
2021/08/01 09:16:22;;;;;;;18.10;16.73;;;19.10;99.90;;;;;;5056217;28;20487;-72
2021/08/01 09:18:50;;;;;;;18.93;17.20;;;19.30;99.90;;;;;;5057703;28;20455;-71
2021/08/01 09:21:31;;;;;;;18.40;16.70;;;19.40;99.90;;;;;;5058769;28;20451;-71
2021/08/01 09:24:00;;;;;;;18.07;16.50;;;19.40;99.90;;;;;;5053413;28;20513;-72
2021/08/01 09:26:42;;;;;;;17.30;16.00;;;19.30;99.90;;;;;;5057055;28;20464;-70
2021/08/01 09:29:10;;;;;;;18.27;16.47;;;19.40;99.90;;;;;;5056192;28;20821;-73
2021/08/01 09:31:38;;;;;;;17.10;15.80;;;19.40;99.90;;;;;;5055893;28;20563;-71
2021/08/01 09:34:25;;;;;;;17.63;16.50;;;19.40;99.90;;;;;;5056659;28;20929;-71
2021/08/01 09:37:00;;;;;;;17.00;15.80;;;19.50;99.90;;;;;;5051709;28;20501;-70
2021/08/01 09:39:29;;;;;;;17.23;16.00;;;19.80;99.90;;;;;;5054481;28;20470;-73
2021/08/01 09:42:03;;;;;;;16.90;15.53;;;20.20;99.90;;;;;;5054462;28;20467;-71
2021/08/01 09:44:31;;;;;;;16.20;14.87;;;20.10;99.90;;;;;;5053328;28;20483;-71
2021/08/01 09:46:59;;;;;;;17.03;15.90;;;20.20;99.90;;;;;;5060462;28;20471;-70
2021/08/01 09:49:30;;;;;;;17.50;16.20;;;20.50;99.90;;;;;;5049134;28;20467;-71
2021/08/01 09:51:59;;;;;;;17.87;16.47;;;20.50;99.90;;;;;;5058208;28;20460;-72
2021/08/01 09:54:27;;;;;;;17.80;16.30;;;20.70;99.90;;;;;;5056459;28;20577;-72
2021/08/01 09:56:57;;;;;;;16.93;15.63;;;20.90;99.90;;;;;;5053833;28;20459;-72
2021/08/01 09:59:25;;;;;;;17.73;16.50;;;21.10;99.90;;;;;;5059188;28;21112;-71
2021/08/01 10:01:54;;;;;;;17.83;16.13;;;21.60;99.90;;;;;;5044209;28;21087;-71
2021/08/01 10:04:34;;;;;;;17.73;16.27;;;21.90;99.90;;;;;;5053789;28;20463;-72
2021/08/01 10:07:03;;;;;;;16.93;15.53;;;21.60;99.90;;;;;;5052073;28;20459;-71
2021/08/01 10:09:31;;;;;;;17.00;15.80;;;20.90;99.90;;;;;;5056377;28;20455;-71
2021/08/01 10:11:58;;;;;;;18.10;16.77;;;20.60;99.90;;;;;;5054304;28;20463;-71
2021/08/01 10:14:26;;;;;;;17.47;16.03;;;20.70;99.90;;;;;;5051759;28;20578;-70
2021/08/01 10:16:53;;;;;;;16.80;15.60;;;20.60;99.90;;;;;;5057973;28;20471;-70
2021/08/01 10:19:20;;;;;;;17.77;16.33;;;20.50;99.90;;;;;;5057134;28;20947;-74
2021/08/01 10:21:51;;;;;;;16.53;15.40;;;20.30;99.90;;;;;;5053976;28;20455;-71
2021/08/01 10:24:24;;;;;;;18.13;16.83;;;20.60;99.90;;;;;;5053982;28;20836;-72
2021/08/01 10:26:53;;;;;;;17.97;16.60;;;20.50;99.90;;;;;;5052973;28;20467;-72
2021/08/01 10:29:27;;;;;;;17.00;15.90;;;20.40;99.90;;;;;;5046894;28;20942;-71
2021/08/01 10:31:57;;;;;;;18.30;16.80;;;20.50;99.90;;;;;;5055779;28;20447;-71
2021/08/01 10:34:35;;;;;;;19.10;17.30;;;20.60;99.90;;;;;;5055666;28;20936;-72
2021/08/01 10:37:06;;;;;;;18.67;17.10;;;21.00;99.90;;;;;;5057066;28;20505;-72
2021/08/01 10:39:36;;;;;;;18.43;16.97;;;21.40;99.90;;;;;;5049655;28;20513;-71
2021/08/01 10:42:10;;;;;;;19.23;17.90;;;21.20;99.90;;;;;;5051804;28;20505;-73
2021/08/01 10:44:38;;;;;;;19.87;18.47;;;21.50;99.90;;;;;;5047350;28;20932;-71
2021/08/01 10:47:10;;;;;;;18.43;17.23;;;21.60;99.90;;;;;;5064685;28;20474;-72
2021/08/01 10:49:40;;;;;;;18.10;16.73;;;22.30;99.90;;;;;;5055882;28;20464;-74
2021/08/01 10:52:11;;;;;;;19.50;17.63;;;23.20;99.90;;;;;;5053936;28;20464;-71
2021/08/01 10:54:53;;;;;;;19.00;17.10;;;23.30;99.90;;;;;;5059416;28;20832;-72
2021/08/01 10:57:22;;;;;;;18.53;17.13;;;22.70;99.90;;;;;;5051566;28;20508;-71
2021/08/01 11:00:00;;;;;;;19.93;18.30;;;22.40;99.90;;;;;;5053602;28;20468;-71
2021/08/01 11:02:29;;;;;;;18.53;17.17;;;22.20;99.90;;;;;;5051512;28;20568;-74
2021/08/01 11:04:57;;;;;;;19.60;18.07;;;22.70;99.90;;;;;;5052176;28;20459;-70
2021/08/01 11:08:03;;;;;;;19.63;18.10;;;23.50;99.90;;;;;;5058226;28;20542;-72
2021/08/01 11:10:32;;;;;;;19.37;17.97;;;23.40;99.90;;;;;;5059914;28;20547;-71
2021/08/01 11:12:59;;;;;;;19.90;18.50;;;23.10;99.90;;;;;;5051346;28;20487;-71
2021/08/01 11:15:45;;;;;;;20.03;18.33;;;23.00;99.90;;;;;;5056415;28;20492;-71
2021/08/01 11:18:12;;;;;;;19.90;18.23;;;22.70;99.90;;;;;;5051413;28;20950;-73
2021/08/01 11:20:51;;;;;;;19.20;17.90;;;23.10;99.90;;;;;;5052854;28;21080;-71
2021/08/01 11:23:20;;;;;;;20.03;18.20;;;23.90;99.90;;;;;;5052908;28;20463;-72
2021/08/01 11:26:11;;;;;;;19.40;18.00;;;24.90;99.90;;;;;;5054883;28;20467;-74
2021/08/01 11:28:39;;;;;;;18.97;17.67;;;25.30;99.90;;;;;;5048193;28;20455;-71
2021/08/01 11:31:21;;;;;;;18.00;16.60;;;24.80;99.90;;;;;;5056639;28;20463;-70
2021/08/01 11:33:50;;;;;;;17.80;16.43;;;24.60;99.90;;;;;;5054074;28;20777;-71
2021/08/01 11:36:26;;;;;;;18.00;16.50;;;25.10;99.90;;;;;;5052953;28;20475;-71
2021/08/01 11:39:04;;;;;;;16.73;15.63;;;25.50;99.90;;;;;;5054048;28;20458;-71
2021/08/01 11:41:38;;;;;;;16.43;15.30;;;26.50;99.90;;;;;;5055073;28;20463;-71
2021/08/01 11:44:08;;;;;;;16.37;15.40;;;27.00;99.90;;;;;;5057193;28;20455;-70
2021/08/01 11:46:58;;;;;;;17.03;15.83;;;27.50;99.90;;;;;;5058523;28;20470;-70
2021/08/01 11:49:27;;;;;;;17.67;16.67;;;27.60;99.90;;;;;;5054603;28;20462;-70
2021/08/01 11:51:55;;;;;;;17.90;16.80;;;27.50;99.90;;;;;;5051264;28;20530;-70
2021/08/01 11:54:27;;;;;;;17.53;16.30;;;26.80;99.90;;;;;;5052634;28;20545;-72
2021/08/01 11:56:57;;;;;;;17.80;16.13;;;25.60;99.90;;;;;;5049713;28;20796;-69
2021/08/01 11:59:25;;;;;;;16.57;15.30;;;24.90;99.90;;;;;;5060780;28;20447;-72
2021/08/01 12:01:54;;;;;;;15.97;14.97;;;25.10;99.90;;;;;;5056044;28;20538;-72
2021/08/01 12:04:21;;;;;;;16.90;15.70;;;26.00;99.90;;;;;;5058832;28;20464;-71
2021/08/01 12:06:48;;;;;;;15.43;14.33;;;25.80;99.90;;;;;;5057397;28;20958;-69
2021/08/01 12:09:16;;;;;;;15.30;14.07;;;25.20;99.90;;;;;;5057181;28;20496;-72
2021/08/01 12:11:48;;;;;;;15.97;14.73;;;24.60;99.90;;;;;;5055481;28;20460;-72
2021/08/01 12:14:15;;;;;;;15.10;14.00;;;24.30;99.90;;;;;;5057971;28;20486;-71
2021/08/01 12:16:57;;;;;;;15.00;14.00;;;24.80;99.90;;;;;;5065343;28;20478;-73
2021/08/01 12:19:26;;;;;;;15.77;14.57;;;24.90;99.90;;;;;;5061344;28;20463;-71
2021/08/01 12:21:56;;;;;;;14.73;13.93;;;25.30;99.90;;;;;;5061013;28;20454;-72
2021/08/01 12:24:29;;;;;;;15.93;14.87;;;26.10;99.90;;;;;;5059648;28;20859;-75
2021/08/01 12:27:02;;;;;;;14.57;13.73;;;25.00;99.90;;;;;;5059288;28;20464;-71
2021/08/01 12:29:32;;;;;;;14.80;13.90;;;24.90;99.90;;;;;;5053878;28;20495;-71
2021/08/01 12:32:01;;;;;;;14.83;14.13;;;24.50;99.90;;;;;;5052762;28;20537;-74
2021/08/01 12:34:28;;;;;;;16.17;14.60;;;23.70;99.90;;;;;;5056293;28;20478;-70
2021/08/01 12:36:56;;;;;;;15.30;14.10;;;23.10;99.90;;;;;;5056987;28;20460;-74
2021/08/01 12:39:24;;;;;;;16.37;14.63;;;23.10;99.90;;;;;;5052307;28;20552;-70
2021/08/01 12:41:51;;;;;;;16.17;14.87;;;23.10;99.90;;;;;;5057476;28;20532;-71